sensor_id;sensor_type;location;lat;lon;timestamp;P1;durP1;ratioP1;P2;durP2;ratioP2
55409;SDS011;41279;43.546;16.426;2022-09-03T00:00:44;5.90;;;2.10;;
55409;SDS011;41279;43.546;16.426;2022-09-03T00:14:02;3.67;;;1.60;;
55409;SDS011;41279;43.546;16.426;2022-09-03T00:16:43;5.93;;;1.90;;
55409;SDS011;41279;43.546;16.426;2022-09-03T00:19:15;3.38;;;1.55;;
55409;SDS011;41279;43.546;16.426;2022-09-03T00:21:45;3.42;;;1.50;;
55409;SDS011;41279;43.546;16.426;2022-09-03T00:24:15;2.75;;;1.42;;
55409;SDS011;41279;43.546;16.426;2022-09-03T00:26:46;4.80;;;1.80;;
55409;SDS011;41279;43.546;16.426;2022-09-03T00:29:20;5.25;;;1.70;;
55409;SDS011;41279;43.546;16.426;2022-09-03T00:31:53;3.90;;;1.63;;
55409;SDS011;41279;43.546;16.426;2022-09-03T00:34:23;4.72;;;1.73;;
55409;SDS011;41279;43.546;16.426;2022-09-03T00:36:54;3.20;;;1.67;;
55409;SDS011;41279;43.546;16.426;2022-09-03T00:39:22;5.85;;;2.00;;
55409;SDS011;41279;43.546;16.426;2022-09-03T00:47:37;3.30;;;1.70;;
55409;SDS011;41279;43.546;16.426;2022-09-03T00:55:47;2.70;;;1.55;;
55409;SDS011;41279;43.546;16.426;2022-09-03T01:00:56;3.50;;;1.60;;
55409;SDS011;41279;43.546;16.426;2022-09-03T01:13:42;3.13;;;1.60;;
55409;SDS011;41279;43.546;16.426;2022-09-03T01:16:26;3.50;;;1.70;;
55409;SDS011;41279;43.546;16.426;2022-09-03T01:19:20;4.07;;;1.70;;
55409;SDS011;41279;43.546;16.426;2022-09-03T01:25:01;3.65;;;1.42;;
55409;SDS011;41279;43.546;16.426;2022-09-03T01:30:17;3.08;;;1.70;;
55409;SDS011;41279;43.546;16.426;2022-09-03T01:56:13;2.72;;;1.50;;
55409;SDS011;41279;43.546;16.426;2022-09-03T01:58:53;2.35;;;1.40;;
55409;SDS011;41279;43.546;16.426;2022-09-03T02:01:32;2.75;;;1.60;;
55409;SDS011;41279;43.546;16.426;2022-09-03T02:04:12;2.83;;;1.65;;
55409;SDS011;41279;43.546;16.426;2022-09-03T02:06:44;2.25;;;1.50;;
55409;SDS011;41279;43.546;16.426;2022-09-03T02:09:12;1.58;;;1.25;;
55409;SDS011;41279;43.546;16.426;2022-09-03T02:11:37;2.80;;;1.50;;
55409;SDS011;41279;43.546;16.426;2022-09-03T02:14:03;2.33;;;1.40;;
55409;SDS011;41279;43.546;16.426;2022-09-03T02:16:30;2.83;;;1.38;;
55409;SDS011;41279;43.546;16.426;2022-09-03T02:19:06;1.98;;;1.27;;
55409;SDS011;41279;43.546;16.426;2022-09-03T02:21:37;3.10;;;1.52;;
55409;SDS011;41279;43.546;16.426;2022-09-03T02:24:05;2.80;;;1.45;;
55409;SDS011;41279;43.546;16.426;2022-09-03T02:26:32;2.20;;;1.40;;
55409;SDS011;41279;43.546;16.426;2022-09-03T02:28:58;2.40;;;1.50;;
55409;SDS011;41279;43.546;16.426;2022-09-03T02:31:26;2.28;;;1.45;;
55409;SDS011;41279;43.546;16.426;2022-09-03T02:33:52;2.83;;;1.63;;
55409;SDS011;41279;43.546;16.426;2022-09-03T02:36:20;2.72;;;1.40;;
55409;SDS011;41279;43.546;16.426;2022-09-03T02:38:51;4.43;;;1.95;;
55409;SDS011;41279;43.546;16.426;2022-09-03T02:41:17;3.45;;;1.55;;
55409;SDS011;41279;43.546;16.426;2022-09-03T02:46:28;5.40;;;1.92;;
55409;SDS011;41279;43.546;16.426;2022-09-03T02:49:08;5.18;;;1.60;;
55409;SDS011;41279;43.546;16.426;2022-09-03T02:51:41;3.58;;;1.65;;
55409;SDS011;41279;43.546;16.426;2022-09-03T02:56:33;3.05;;;1.58;;
55409;SDS011;41279;43.546;16.426;2022-09-03T02:58:59;2.38;;;1.58;;
55409;SDS011;41279;43.546;16.426;2022-09-03T03:01:24;2.45;;;1.50;;
55409;SDS011;41279;43.546;16.426;2022-09-03T03:03:50;3.65;;;1.50;;
55409;SDS011;41279;43.546;16.426;2022-09-03T03:06:16;2.33;;;1.52;;
55409;SDS011;41279;43.546;16.426;2022-09-03T03:08:44;3.08;;;1.60;;
55409;SDS011;41279;43.546;16.426;2022-09-03T03:11:10;3.05;;;1.50;;
55409;SDS011;41279;43.546;16.426;2022-09-03T03:13:36;3.63;;;1.70;;
55409;SDS011;41279;43.546;16.426;2022-09-03T03:16:03;3.53;;;1.50;;
55409;SDS011;41279;43.546;16.426;2022-09-03T03:18:32;2.67;;;1.48;;
55409;SDS011;41279;43.546;16.426;2022-09-03T03:21:02;2.70;;;1.70;;
55409;SDS011;41279;43.546;16.426;2022-09-03T03:23:32;3.05;;;1.73;;
55409;SDS011;41279;43.546;16.426;2022-09-03T03:26:01;3.40;;;1.85;;
55409;SDS011;41279;43.546;16.426;2022-09-03T03:28:37;2.80;;;1.60;;
55409;SDS011;41279;43.546;16.426;2022-09-03T03:31:07;4.05;;;1.85;;
55409;SDS011;41279;43.546;16.426;2022-09-03T03:33:34;3.13;;;1.77;;
55409;SDS011;41279;43.546;16.426;2022-09-03T03:36:03;2.97;;;1.70;;
55409;SDS011;41279;43.546;16.426;2022-09-03T03:38:37;3.22;;;1.90;;
55409;SDS011;41279;43.546;16.426;2022-09-03T03:41:10;5.70;;;1.98;;
55409;SDS011;41279;43.546;16.426;2022-09-03T03:43:37;7.05;;;1.70;;
55409;SDS011;41279;43.546;16.426;2022-09-03T03:46:03;3.50;;;1.92;;
55409;SDS011;41279;43.546;16.426;2022-09-03T03:48:29;3.30;;;1.77;;
55409;SDS011;41279;43.546;16.426;2022-09-03T03:51:02;5.53;;;1.98;;
55409;SDS011;41279;43.546;16.426;2022-09-03T03:53:31;3.38;;;1.70;;
55409;SDS011;41279;43.546;16.426;2022-09-03T03:55:59;5.05;;;2.08;;
55409;SDS011;41279;43.546;16.426;2022-09-03T03:58:27;3.85;;;1.90;;
55409;SDS011;41279;43.546;16.426;2022-09-03T04:00:53;6.10;;;2.05;;
55409;SDS011;41279;43.546;16.426;2022-09-03T04:03:18;5.15;;;2.05;;
55409;SDS011;41279;43.546;16.426;2022-09-03T04:05:53;3.83;;;1.95;;
55409;SDS011;41279;43.546;16.426;2022-09-03T04:08:23;3.72;;;1.83;;
55409;SDS011;41279;43.546;16.426;2022-09-03T04:10:49;4.18;;;1.90;;
55409;SDS011;41279;43.546;16.426;2022-09-03T04:13:15;3.15;;;1.70;;
55409;SDS011;41279;43.546;16.426;2022-09-03T04:15:41;5.60;;;1.90;;
55409;SDS011;41279;43.546;16.426;2022-09-03T04:18:06;3.97;;;1.90;;
55409;SDS011;41279;43.546;16.426;2022-09-03T04:20:32;4.47;;;1.80;;
55409;SDS011;41279;43.546;16.426;2022-09-03T04:23:00;5.68;;;2.13;;
55409;SDS011;41279;43.546;16.426;2022-09-03T04:25:26;3.95;;;1.90;;
55409;SDS011;41279;43.546;16.426;2022-09-03T04:27:52;3.60;;;1.80;;
55409;SDS011;41279;43.546;16.426;2022-09-03T04:30:17;7.60;;;2.60;;
55409;SDS011;41279;43.546;16.426;2022-09-03T04:32:43;3.63;;;1.90;;
55409;SDS011;41279;43.546;16.426;2022-09-03T04:37:47;4.75;;;1.92;;
55409;SDS011;41279;43.546;16.426;2022-09-03T04:40:13;5.40;;;2.00;;
55409;SDS011;41279;43.546;16.426;2022-09-03T04:42:39;3.53;;;2.10;;
55409;SDS011;41279;43.546;16.426;2022-09-03T04:45:04;4.55;;;2.10;;
55409;SDS011;41279;43.546;16.426;2022-09-03T04:47:31;5.05;;;2.17;;
55409;SDS011;41279;43.546;16.426;2022-09-03T04:49:56;3.45;;;1.92;;
55409;SDS011;41279;43.546;16.426;2022-09-03T04:52:22;3.38;;;1.80;;
55409;SDS011;41279;43.546;16.426;2022-09-03T04:54:48;4.55;;;1.80;;
55409;SDS011;41279;43.546;16.426;2022-09-03T04:57:13;4.20;;;1.98;;
55409;SDS011;41279;43.546;16.426;2022-09-03T04:59:39;7.10;;;2.20;;
55409;SDS011;41279;43.546;16.426;2022-09-03T05:02:05;6.00;;;1.95;;
55409;SDS011;41279;43.546;16.426;2022-09-03T05:04:32;6.20;;;1.85;;
55409;SDS011;41279;43.546;16.426;2022-09-03T05:06:57;5.65;;;2.40;;
55409;SDS011;41279;43.546;16.426;2022-09-03T05:09:23;4.85;;;1.83;;
55409;SDS011;41279;43.546;16.426;2022-09-03T05:11:48;7.78;;;2.58;;
55409;SDS011;41279;43.546;16.426;2022-09-03T05:14:13;8.20;;;3.25;;
55409;SDS011;41279;43.546;16.426;2022-09-03T05:16:39;6.00;;;3.08;;
55409;SDS011;41279;43.546;16.426;2022-09-03T05:19:04;7.93;;;4.20;;
55409;SDS011;41279;43.546;16.426;2022-09-03T05:21:32;7.20;;;2.60;;
55409;SDS011;41279;43.546;16.426;2022-09-03T05:24:00;5.80;;;2.38;;
55409;SDS011;41279;43.546;16.426;2022-09-03T05:26:27;4.97;;;2.20;;
55409;SDS011;41279;43.546;16.426;2022-09-03T05:28:54;3.05;;;1.60;;
55409;SDS011;41279;43.546;16.426;2022-09-03T05:31:21;4.05;;;2.25;;
55409;SDS011;41279;43.546;16.426;2022-09-03T05:33:50;4.25;;;2.00;;
55409;SDS011;41279;43.546;16.426;2022-09-03T05:36:18;6.25;;;2.00;;
55409;SDS011;41279;43.546;16.426;2022-09-03T05:38:46;3.47;;;1.80;;
55409;SDS011;41279;43.546;16.426;2022-09-03T05:41:13;4.50;;;1.90;;
55409;SDS011;41279;43.546;16.426;2022-09-03T05:43:39;4.93;;;1.80;;
55409;SDS011;41279;43.546;16.426;2022-09-03T05:46:05;5.65;;;2.10;;
55409;SDS011;41279;43.546;16.426;2022-09-03T05:48:33;3.47;;;1.63;;
55409;SDS011;41279;43.546;16.426;2022-09-03T05:53:37;6.82;;;2.05;;
55409;SDS011;41279;43.546;16.426;2022-09-03T05:56:04;5.18;;;2.20;;
55409;SDS011;41279;43.546;16.426;2022-09-03T05:58:32;7.78;;;2.10;;
55409;SDS011;41279;43.546;16.426;2022-09-03T06:00:59;6.22;;;2.28;;
55409;SDS011;41279;43.546;16.426;2022-09-03T06:03:33;5.00;;;2.60;;
55409;SDS011;41279;43.546;16.426;2022-09-03T06:05:59;9.70;;;2.70;;
55409;SDS011;41279;43.546;16.426;2022-09-03T06:08:24;9.00;;;2.90;;
55409;SDS011;41279;43.546;16.426;2022-09-03T06:10:50;8.80;;;2.85;;
55409;SDS011;41279;43.546;16.426;2022-09-03T06:13:22;7.28;;;2.30;;
55409;SDS011;41279;43.546;16.426;2022-09-03T06:15:48;7.75;;;3.00;;
55409;SDS011;41279;43.546;16.426;2022-09-03T06:18:13;7.30;;;2.40;;
55409;SDS011;41279;43.546;16.426;2022-09-03T06:20:38;6.65;;;2.00;;
55409;SDS011;41279;43.546;16.426;2022-09-03T06:23:04;5.93;;;2.03;;
55409;SDS011;41279;43.546;16.426;2022-09-03T06:25:29;5.28;;;2.10;;
55409;SDS011;41279;43.546;16.426;2022-09-03T06:27:55;7.38;;;2.92;;
55409;SDS011;41279;43.546;16.426;2022-09-03T06:30:21;8.40;;;2.53;;
55409;SDS011;41279;43.546;16.426;2022-09-03T06:32:48;7.78;;;2.72;;
55409;SDS011;41279;43.546;16.426;2022-09-03T06:35:14;8.18;;;2.50;;
55409;SDS011;41279;43.546;16.426;2022-09-03T06:37:41;7.60;;;2.42;;
55409;SDS011;41279;43.546;16.426;2022-09-03T06:40:07;6.47;;;2.00;;
55409;SDS011;41279;43.546;16.426;2022-09-03T06:42:36;8.27;;;2.08;;
55409;SDS011;41279;43.546;16.426;2022-09-03T06:45:02;5.90;;;2.00;;
55409;SDS011;41279;43.546;16.426;2022-09-03T06:47:28;4.47;;;1.98;;
55409;SDS011;41279;43.546;16.426;2022-09-03T06:49:54;9.70;;;2.85;;
55409;SDS011;41279;43.546;16.426;2022-09-03T06:52:19;7.28;;;2.20;;
55409;SDS011;41279;43.546;16.426;2022-09-03T06:54:44;5.18;;;1.85;;
55409;SDS011;41279;43.546;16.426;2022-09-03T06:57:10;10.20;;;2.10;;
55409;SDS011;41279;43.546;16.426;2022-09-03T06:59:35;12.02;;;2.60;;
55409;SDS011;41279;43.546;16.426;2022-09-03T07:02:00;4.82;;;1.88;;
55409;SDS011;41279;43.546;16.426;2022-09-03T07:04:27;3.75;;;1.80;;
55409;SDS011;41279;43.546;16.426;2022-09-03T07:06:52;8.07;;;1.67;;
55409;SDS011;41279;43.546;16.426;2022-09-03T07:09:18;4.93;;;1.70;;
55409;SDS011;41279;43.546;16.426;2022-09-03T07:11:43;3.10;;;1.55;;
55409;SDS011;41279;43.546;16.426;2022-09-03T07:14:13;4.43;;;1.52;;
55409;SDS011;41279;43.546;16.426;2022-09-03T07:16:39;2.70;;;1.50;;
55409;SDS011;41279;43.546;16.426;2022-09-03T07:19:08;3.60;;;1.58;;
55409;SDS011;41279;43.546;16.426;2022-09-03T07:21:34;2.65;;;1.50;;
55409;SDS011;41279;43.546;16.426;2022-09-03T07:24:03;3.20;;;1.60;;
55409;SDS011;41279;43.546;16.426;2022-09-03T07:26:30;3.88;;;1.80;;
55409;SDS011;41279;43.546;16.426;2022-09-03T07:28:57;4.53;;;1.60;;
55409;SDS011;41279;43.546;16.426;2022-09-03T07:31:34;2.38;;;1.48;;
55409;SDS011;41279;43.546;16.426;2022-09-03T07:34:05;2.83;;;1.50;;
55409;SDS011;41279;43.546;16.426;2022-09-03T07:36:39;3.05;;;1.70;;
55409;SDS011;41279;43.546;16.426;2022-09-03T07:39:07;3.00;;;1.40;;
55409;SDS011;41279;43.546;16.426;2022-09-03T07:41:33;2.92;;;1.60;;
55409;SDS011;41279;43.546;16.426;2022-09-03T07:43:58;2.30;;;1.45;;
55409;SDS011;41279;43.546;16.426;2022-09-03T07:46:29;2.88;;;1.80;;
55409;SDS011;41279;43.546;16.426;2022-09-03T07:48:57;3.90;;;1.77;;
55409;SDS011;41279;43.546;16.426;2022-09-03T07:51:24;3.08;;;1.90;;
55409;SDS011;41279;43.546;16.426;2022-09-03T07:53:55;2.90;;;1.83;;
55409;SDS011;41279;43.546;16.426;2022-09-03T07:56:22;3.38;;;1.80;;
55409;SDS011;41279;43.546;16.426;2022-09-03T07:58:48;4.28;;;1.90;;
55409;SDS011;41279;43.546;16.426;2022-09-03T08:01:15;3.60;;;1.80;;
55409;SDS011;41279;43.546;16.426;2022-09-03T08:03:43;4.60;;;1.77;;
55409;SDS011;41279;43.546;16.426;2022-09-03T08:06:10;5.38;;;1.77;;
55409;SDS011;41279;43.546;16.426;2022-09-03T08:08:37;4.03;;;1.80;;
55409;SDS011;41279;43.546;16.426;2022-09-03T08:11:09;3.20;;;1.80;;
55409;SDS011;41279;43.546;16.426;2022-09-03T08:13:37;3.13;;;1.80;;
55409;SDS011;41279;43.546;16.426;2022-09-03T08:16:07;3.30;;;1.90;;
55409;SDS011;41279;43.546;16.426;2022-09-03T08:18:33;4.35;;;1.92;;
55409;SDS011;41279;43.546;16.426;2022-09-03T08:21:10;6.25;;;2.10;;
55409;SDS011;41279;43.546;16.426;2022-09-03T08:23:39;3.33;;;1.90;;
55409;SDS011;41279;43.546;16.426;2022-09-03T08:26:08;3.03;;;1.98;;
55409;SDS011;41279;43.546;16.426;2022-09-03T08:28:35;4.05;;;2.10;;
55409;SDS011;41279;43.546;16.426;2022-09-03T08:31:14;2.75;;;1.80;;
55409;SDS011;41279;43.546;16.426;2022-09-03T08:33:43;5.20;;;1.90;;
55409;SDS011;41279;43.546;16.426;2022-09-03T08:36:12;2.65;;;1.70;;
55409;SDS011;41279;43.546;16.426;2022-09-03T08:38:43;4.57;;;2.20;;
55409;SDS011;41279;43.546;16.426;2022-09-03T08:41:57;3.40;;;1.80;;
55409;SDS011;41279;43.546;16.426;2022-09-03T08:50:24;4.75;;;2.03;;
55409;SDS011;41279;43.546;16.426;2022-09-03T08:58:25;3.40;;;2.00;;
55409;SDS011;41279;43.546;16.426;2022-09-03T09:06:24;3.20;;;1.88;;
55409;SDS011;41279;43.546;16.426;2022-09-03T09:09:10;3.97;;;1.75;;
55409;SDS011;41279;43.546;16.426;2022-09-03T09:20:25;4.22;;;2.20;;
55409;SDS011;41279;43.546;16.426;2022-09-03T09:23:07;3.03;;;1.90;;
55409;SDS011;41279;43.546;16.426;2022-09-03T09:25:42;3.50;;;1.90;;
55409;SDS011;41279;43.546;16.426;2022-09-03T09:28:16;3.70;;;1.90;;
55409;SDS011;41279;43.546;16.426;2022-09-03T09:30:43;3.25;;;1.77;;
55409;SDS011;41279;43.546;16.426;2022-09-03T09:33:11;3.28;;;1.95;;
55409;SDS011;41279;43.546;16.426;2022-09-03T09:35:37;3.20;;;1.70;;
55409;SDS011;41279;43.546;16.426;2022-09-03T09:38:06;2.95;;;1.75;;
55409;SDS011;41279;43.546;16.426;2022-09-03T09:40:33;3.97;;;1.77;;
55409;SDS011;41279;43.546;16.426;2022-09-03T09:45:41;4.00;;;1.85;;
55409;SDS011;41279;43.546;16.426;2022-09-03T09:48:12;4.05;;;2.05;;
55409;SDS011;41279;43.546;16.426;2022-09-03T09:50:45;3.63;;;2.05;;
55409;SDS011;41279;43.546;16.426;2022-09-03T09:53:10;3.70;;;1.85;;
55409;SDS011;41279;43.546;16.426;2022-09-03T09:55:56;3.53;;;1.75;;
55409;SDS011;41279;43.546;16.426;2022-09-03T09:58:22;3.00;;;1.70;;
55409;SDS011;41279;43.546;16.426;2022-09-03T10:00:55;4.07;;;2.10;;
55409;SDS011;41279;43.546;16.426;2022-09-03T10:03:26;3.38;;;1.90;;
55409;SDS011;41279;43.546;16.426;2022-09-03T10:05:57;3.72;;;1.90;;
55409;SDS011;41279;43.546;16.426;2022-09-03T10:08:47;2.70;;;1.60;;
55409;SDS011;41279;43.546;16.426;2022-09-03T10:11:12;3.92;;;1.60;;
55409;SDS011;41279;43.546;16.426;2022-09-03T10:13:42;3.28;;;1.70;;
55409;SDS011;41279;43.546;16.426;2022-09-03T10:19:08;4.00;;;1.52;;
55409;SDS011;41279;43.546;16.426;2022-09-03T10:21:44;3.22;;;1.70;;
55409;SDS011;41279;43.546;16.426;2022-09-03T10:26:52;2.63;;;1.50;;
55409;SDS011;41279;43.546;16.426;2022-09-03T10:29:19;3.30;;;1.80;;
55409;SDS011;41279;43.546;16.426;2022-09-03T10:48:58;1.90;;;1.27;;
55409;SDS011;41279;43.546;16.426;2022-09-03T10:52:03;2.35;;;1.40;;
55409;SDS011;41279;43.546;16.426;2022-09-03T11:05:20;2.30;;;1.48;;
55409;SDS011;41279;43.546;16.426;2022-09-03T11:07:51;2.17;;;1.30;;
55409;SDS011;41279;43.546;16.426;2022-09-03T11:10:27;1.60;;;1.17;;
55409;SDS011;41279;43.546;16.426;2022-09-03T11:15:23;2.17;;;1.30;;
55409;SDS011;41279;43.546;16.426;2022-09-03T11:17:57;2.78;;;1.40;;
55409;SDS011;41279;43.546;16.426;2022-09-03T11:20:25;2.40;;;1.40;;
55409;SDS011;41279;43.546;16.426;2022-09-03T11:23:00;2.20;;;1.40;;
55409;SDS011;41279;43.546;16.426;2022-09-03T11:25:35;2.95;;;1.50;;
55409;SDS011;41279;43.546;16.426;2022-09-03T11:34:12;2.20;;;1.40;;
55409;SDS011;41279;43.546;16.426;2022-09-03T11:36:40;1.70;;;1.30;;
55409;SDS011;41279;43.546;16.426;2022-09-03T11:39:12;1.90;;;1.20;;
55409;SDS011;41279;43.546;16.426;2022-09-03T11:42:00;3.38;;;1.52;;
55409;SDS011;41279;43.546;16.426;2022-09-03T11:44:43;2.10;;;1.35;;
55409;SDS011;41279;43.546;16.426;2022-09-03T11:47:37;3.75;;;1.58;;
55409;SDS011;41279;43.546;16.426;2022-09-03T11:50:08;2.17;;;1.30;;
55409;SDS011;41279;43.546;16.426;2022-09-03T11:52:44;2.13;;;1.52;;
55409;SDS011;41279;43.546;16.426;2022-09-03T11:55:10;2.58;;;1.40;;
55409;SDS011;41279;43.546;16.426;2022-09-03T11:57:40;3.25;;;1.33;;
55409;SDS011;41279;43.546;16.426;2022-09-03T12:00:13;2.65;;;1.30;;
55409;SDS011;41279;43.546;16.426;2022-09-03T12:02:54;2.50;;;1.38;;
55409;SDS011;41279;43.546;16.426;2022-09-03T12:14:11;3.03;;;1.30;;
55409;SDS011;41279;43.546;16.426;2022-09-03T12:19:52;1.45;;;1.10;;
55409;SDS011;41279;43.546;16.426;2022-09-03T12:22:20;1.88;;;1.23;;
55409;SDS011;41279;43.546;16.426;2022-09-03T12:24:47;2.67;;;1.75;;
55409;SDS011;41279;43.546;16.426;2022-09-03T12:27:24;2.38;;;1.27;;
55409;SDS011;41279;43.546;16.426;2022-09-03T12:29:57;2.45;;;1.48;;
55409;SDS011;41279;43.546;16.426;2022-09-03T12:32:31;2.42;;;1.55;;
55409;SDS011;41279;43.546;16.426;2022-09-03T12:35:23;2.15;;;1.40;;
55409;SDS011;41279;43.546;16.426;2022-09-03T12:37:50;1.85;;;1.40;;
55409;SDS011;41279;43.546;16.426;2022-09-03T12:40:17;1.98;;;1.33;;
55409;SDS011;41279;43.546;16.426;2022-09-03T12:42:45;2.15;;;1.30;;
55409;SDS011;41279;43.546;16.426;2022-09-03T12:45:11;2.45;;;1.50;;
55409;SDS011;41279;43.546;16.426;2022-09-03T12:47:39;2.08;;;1.45;;
55409;SDS011;41279;43.546;16.426;2022-09-03T12:50:10;1.98;;;1.40;;
55409;SDS011;41279;43.546;16.426;2022-09-03T12:52:42;1.95;;;1.30;;
55409;SDS011;41279;43.546;16.426;2022-09-03T12:57:48;2.10;;;1.30;;
55409;SDS011;41279;43.546;16.426;2022-09-03T13:00:19;2.58;;;1.40;;
55409;SDS011;41279;43.546;16.426;2022-09-03T13:02:52;2.20;;;1.40;;
55409;SDS011;41279;43.546;16.426;2022-09-03T13:08:00;2.75;;;1.50;;
55409;SDS011;41279;43.546;16.426;2022-09-03T13:10:32;2.25;;;1.40;;
55409;SDS011;41279;43.546;16.426;2022-09-03T13:13:17;4.20;;;1.55;;
55409;SDS011;41279;43.546;16.426;2022-09-03T13:27:32;2.25;;;1.40;;
55409;SDS011;41279;43.546;16.426;2022-09-03T13:30:21;2.35;;;1.48;;
55409;SDS011;41279;43.546;16.426;2022-09-03T13:33:05;2.28;;;1.42;;
55409;SDS011;41279;43.546;16.426;2022-09-03T13:35:46;1.83;;;1.33;;
55409;SDS011;41279;43.546;16.426;2022-09-03T13:43:36;3.13;;;1.50;;
55409;SDS011;41279;43.546;16.426;2022-09-03T13:46:10;4.22;;;1.70;;
55409;SDS011;41279;43.546;16.426;2022-09-03T13:48:42;2.25;;;1.38;;
55409;SDS011;41279;43.546;16.426;2022-09-03T13:51:29;2.88;;;1.60;;
55409;SDS011;41279;43.546;16.426;2022-09-03T13:54:02;2.15;;;1.40;;
55409;SDS011;41279;43.546;16.426;2022-09-03T13:56:42;2.60;;;1.38;;
55409;SDS011;41279;43.546;16.426;2022-09-03T13:59:19;1.95;;;1.40;;
55409;SDS011;41279;43.546;16.426;2022-09-03T14:04:41;2.78;;;1.92;;
55409;SDS011;41279;43.546;16.426;2022-09-03T14:07:27;1.77;;;1.20;;
55409;SDS011;41279;43.546;16.426;2022-09-03T14:13:35;2.17;;;1.30;;
55409;SDS011;41279;43.546;16.426;2022-09-03T14:15:49;2.03;;;1.40;;
55409;SDS011;41279;43.546;16.426;2022-09-03T14:21:02;2.33;;;1.30;;
55409;SDS011;41279;43.546;16.426;2022-09-03T14:26:16;2.83;;;1.60;;
55409;SDS011;41279;43.546;16.426;2022-09-03T14:28:57;2.42;;;1.40;;
55409;SDS011;41279;43.546;16.426;2022-09-03T14:44:43;2.60;;;1.60;;
55409;SDS011;41279;43.546;16.426;2022-09-03T14:47:14;4.50;;;1.80;;
55409;SDS011;41279;43.546;16.426;2022-09-03T14:49:52;2.55;;;1.40;;
55409;SDS011;41279;43.546;16.426;2022-09-03T14:52:29;2.33;;;1.50;;
55409;SDS011;41279;43.546;16.426;2022-09-03T14:55:21;3.05;;;1.70;;
55409;SDS011;41279;43.546;16.426;2022-09-03T15:06:22;2.53;;;1.40;;
55409;SDS011;41279;43.546;16.426;2022-09-03T15:11:46;2.40;;;1.40;;
55409;SDS011;41279;43.546;16.426;2022-09-03T15:16:57;2.47;;;1.52;;
55409;SDS011;41279;43.546;16.426;2022-09-03T15:22:21;2.90;;;1.35;;
55409;SDS011;41279;43.546;16.426;2022-09-03T15:30:09;4.03;;;1.88;;
55409;SDS011;41279;43.546;16.426;2022-09-03T15:38:38;2.42;;;1.50;;
55409;SDS011;41279;43.546;16.426;2022-09-03T15:41:55;3.33;;;1.50;;
55409;SDS011;41279;43.546;16.426;2022-09-03T15:44:07;4.43;;;1.70;;
55409;SDS011;41279;43.546;16.426;2022-09-03T15:57:25;4.03;;;1.63;;
55409;SDS011;41279;43.546;16.426;2022-09-03T16:10:47;2.33;;;1.40;;
55409;SDS011;41279;43.546;16.426;2022-09-03T16:13:32;2.63;;;1.60;;
55409;SDS011;41279;43.546;16.426;2022-09-03T16:16:22;2.15;;;1.40;;
55409;SDS011;41279;43.546;16.426;2022-09-03T16:19:11;6.10;;;1.60;;
55409;SDS011;41279;43.546;16.426;2022-09-03T16:22:05;4.50;;;1.75;;
55409;SDS011;41279;43.546;16.426;2022-09-03T16:24:43;3.28;;;1.63;;
55409;SDS011;41279;43.546;16.426;2022-09-03T16:27:18;2.72;;;1.67;;
55409;SDS011;41279;43.546;16.426;2022-09-03T16:29:53;3.80;;;1.50;;
55409;SDS011;41279;43.546;16.426;2022-09-03T16:32:32;4.25;;;1.88;;
55409;SDS011;41279;43.546;16.426;2022-09-03T16:42:52;4.90;;;1.60;;
55409;SDS011;41279;43.546;16.426;2022-09-03T16:45:41;3.88;;;1.80;;
55409;SDS011;41279;43.546;16.426;2022-09-03T16:57:53;2.75;;;1.40;;
55409;SDS011;41279;43.546;16.426;2022-09-03T17:00:22;3.30;;;1.70;;
55409;SDS011;41279;43.546;16.426;2022-09-03T17:03:35;2.33;;;1.60;;
55409;SDS011;41279;43.546;16.426;2022-09-03T17:08:57;2.40;;;1.60;;
55409;SDS011;41279;43.546;16.426;2022-09-03T17:17:00;4.55;;;1.50;;
55409;SDS011;41279;43.546;16.426;2022-09-03T17:19:50;3.00;;;1.50;;
55409;SDS011;41279;43.546;16.426;2022-09-03T17:25:35;4.15;;;1.92;;
55409;SDS011;41279;43.546;16.426;2022-09-03T17:31:03;3.92;;;1.70;;
55409;SDS011;41279;43.546;16.426;2022-09-03T17:34:04;2.85;;;1.40;;
55409;SDS011;41279;43.546;16.426;2022-09-03T17:42:43;3.70;;;1.60;;
55409;SDS011;41279;43.546;16.426;2022-09-03T17:51:14;4.82;;;2.30;;
55409;SDS011;41279;43.546;16.426;2022-09-03T17:56:29;2.42;;;1.50;;
55409;SDS011;41279;43.546;16.426;2022-09-03T18:01:51;3.13;;;1.80;;
55409;SDS011;41279;43.546;16.426;2022-09-03T18:04:28;3.30;;;1.90;;
55409;SDS011;41279;43.546;16.426;2022-09-03T18:20:55;4.68;;;1.90;;
55409;SDS011;41279;43.546;16.426;2022-09-03T18:23:46;3.83;;;1.80;;
55409;SDS011;41279;43.546;16.426;2022-09-03T18:26:39;6.03;;;2.97;;
55409;SDS011;41279;43.546;16.426;2022-09-03T18:29:31;5.10;;;3.00;;
55409;SDS011;41279;43.546;16.426;2022-09-03T18:32:18;3.70;;;2.10;;
55409;SDS011;41279;43.546;16.426;2022-09-03T18:35:02;3.80;;;2.20;;
55409;SDS011;41279;43.546;16.426;2022-09-03T18:37:46;5.38;;;2.72;;
55409;SDS011;41279;43.546;16.426;2022-09-03T18:40:33;9.95;;;5.18;;
55409;SDS011;41279;43.546;16.426;2022-09-03T18:43:59;6.43;;;3.03;;
55409;SDS011;41279;43.546;16.426;2022-09-03T18:50:12;5.18;;;2.67;;
55409;SDS011;41279;43.546;16.426;2022-09-03T18:53:16;21.75;;;15.23;;
55409;SDS011;41279;43.546;16.426;2022-09-03T18:59:21;10.15;;;7.10;;
55409;SDS011;41279;43.546;16.426;2022-09-03T19:02:36;6.50;;;3.90;;
55409;SDS011;41279;43.546;16.426;2022-09-03T19:09:31;5.97;;;3.60;;
55409;SDS011;41279;43.546;16.426;2022-09-03T19:15:24;5.47;;;2.90;;
55409;SDS011;41279;43.546;16.426;2022-09-03T19:21:35;5.35;;;2.55;;
55409;SDS011;41279;43.546;16.426;2022-09-03T19:24:28;4.13;;;2.65;;
55409;SDS011;41279;43.546;16.426;2022-09-03T19:30:21;5.32;;;2.50;;
55409;SDS011;41279;43.546;16.426;2022-09-03T19:33:14;5.30;;;2.70;;
55409;SDS011;41279;43.546;16.426;2022-09-03T19:36:19;5.93;;;3.38;;
55409;SDS011;41279;43.546;16.426;2022-09-03T19:42:15;5.18;;;2.47;;
55409;SDS011;41279;43.546;16.426;2022-09-03T19:48:27;4.75;;;2.30;;
55409;SDS011;41279;43.546;16.426;2022-09-03T19:51:38;6.25;;;2.90;;
55409;SDS011;41279;43.546;16.426;2022-09-03T19:54:33;6.25;;;3.10;;
55409;SDS011;41279;43.546;16.426;2022-09-03T19:57:18;5.80;;;2.78;;
55409;SDS011;41279;43.546;16.426;2022-09-03T20:00:04;5.65;;;2.30;;
55409;SDS011;41279;43.546;16.426;2022-09-03T20:02:48;6.00;;;2.58;;
55409;SDS011;41279;43.546;16.426;2022-09-03T20:05:32;4.03;;;2.05;;
55409;SDS011;41279;43.546;16.426;2022-09-03T20:08:19;4.95;;;2.15;;
55409;SDS011;41279;43.546;16.426;2022-09-03T20:11:07;5.00;;;2.30;;
55409;SDS011;41279;43.546;16.426;2022-09-03T20:13:38;4.78;;;2.25;;
55409;SDS011;41279;43.546;16.426;2022-09-03T20:16:30;5.63;;;2.20;;
55409;SDS011;41279;43.546;16.426;2022-09-03T20:29:53;5.13;;;2.25;;
55409;SDS011;41279;43.546;16.426;2022-09-03T20:44:07;5.40;;;2.55;;
55409;SDS011;41279;43.546;16.426;2022-09-03T20:49:14;4.82;;;2.95;;
55409;SDS011;41279;43.546;16.426;2022-09-03T20:52:00;6.05;;;2.53;;
55409;SDS011;41279;43.546;16.426;2022-09-03T20:54:36;5.95;;;3.05;;
55409;SDS011;41279;43.546;16.426;2022-09-03T21:00:00;4.73;;;2.33;;
55409;SDS011;41279;43.546;16.426;2022-09-03T21:05:18;4.55;;;2.20;;
55409;SDS011;41279;43.546;16.426;2022-09-03T21:19:09;4.80;;;2.53;;
55409;SDS011;41279;43.546;16.426;2022-09-03T21:24:36;5.85;;;2.58;;
55409;SDS011;41279;43.546;16.426;2022-09-03T21:27:13;3.53;;;2.20;;
55409;SDS011;41279;43.546;16.426;2022-09-03T21:35:19;4.20;;;2.58;;
55409;SDS011;41279;43.546;16.426;2022-09-03T21:38:36;5.72;;;2.78;;
55409;SDS011;41279;43.546;16.426;2022-09-03T21:40:45;7.47;;;2.90;;
55409;SDS011;41279;43.546;16.426;2022-09-03T21:43:22;4.93;;;3.00;;